Laceys Spring, Alabama
Current Conditions -  °F | °C
As of 2:53 AM on Wednesday 22 Oct 2014 (Local Time) from KHSV Reporting Station
Clear Clear  
Wind Chill: 53°   Ceiling: Unl
Heat Index: 53°   Visibility: 10mi
Dew Point: 43°   Wind: 6mph
Humidity: 69%   Direction: 30°NNE
Pressure: 30.1"   Gusts: NA
Location:  34.53°N, 86.6°W
Report Text: KHSV 220753Z AUTO 03005KT 10SM CLR 12/06 A3010 RMK AO2 SLP188 T01170061
Loading
Personal Weather Stations






























Interactive Weather Map
Tropical Storm Tracking
New forecast layout! Learn more

10-Day Weather Forecast

Advertisements
Track Severe Weather on mobile